Weather observations for the past three days for
Tacoma / McChord Air Force Base
| Date | Time (pdt) | Wind (mph) | Vis. (mi.) | Weather | Sky Cond. | Temperature (ºF) | Relative Humidity | Wind Chill (°F) | Heat Index (°F) | Pressure | Precipitation (in) | ||||||
|---|---|---|---|---|---|---|---|---|---|---|---|---|---|---|---|---|---|
| Air | Dwpt | 6 hour | altimeter (in) | sea level (mb) | 1 hr | 3 hr | 6 hr | ||||||||||
| Max. | Min. | ||||||||||||||||
| 07 | 06:55 | S 6 | 10.00 | Overcast | OVC014 | 50.5 | 44.2 | 79% | 30.14 | 1021.0 | |||||||
| 07 | 05:55 | S 3 | 10.00 | Overcast | OVC015 | 50.2 | 44.6 | 81% | 30.13 | 1020.7 | |||||||
| 07 | 04:55 | S 5 | 10.00 | Overcast | BKN016 OVC025 | 50.4 | 44.8 | 52.9 | 50.4 | 81% | 30.14 | 1021.0 | |||||
| 07 | 03:55 | S 5 | 10.00 | Overcast | SCT017 BKN026 OVC033 | 51.1 | 44.4 | 78% | 30.14 | 1021.0 | |||||||
| 07 | 02:55 | S 7 | 10.00 | Overcast | OVC030 | 51.8 | 44.4 | 76% | 30.14 | 1021.0 | |||||||
| 07 | 01:55 | S 6 | 10.00 | Overcast | OVC032 | 52.5 | 44.8 | 75% | 30.15 | 1021.3 | |||||||
| 07 | 00:55 | SW 7 | 10.00 | Overcast | FEW020 OVC030 | 52.7 | 45.7 | 77% | 30.15 | 1021.3 | |||||||
| 06 | 23:55 | W 7 | 10.00 | Overcast | SCT025 OVC031 | 52.3 | 47.7 | 84% | 30.15 | 1021.4 | |||||||
| 06 | 22:55 | SW 7 | 6.00 | Fog/Mist | OVC004 | 52.5 | 49.6 | 60.4 | 52.5 | 90% | 30.15 | 1021.4 | |||||
| 06 | 21:55 | SW 7 | 10.00 | Overcast | OVC006 | 54.1 | 49.1 | 83% | 30.15 | 1021.4 | |||||||
| 06 | 20:55 | W 9 | 10.00 | Overcast | OVC020 | 56.1 | 47.7 | 73% | 30.14 | 1021.0 | |||||||
| 06 | 19:55 | W 9 | 10.00 | Overcast | OVC022 | 56.5 | 47.8 | 73% | 30.13 | 1020.7 | |||||||
| 06 | 18:55 | W 12 | 10.00 | Overcast | OVC025 | 58.3 | 47.8 | 68% | 30.13 | 1020.7 | |||||||
| 06 | 17:55 | W 8 | 10.00 | Overcast | OVC027 | 59.5 | 49.3 | 69% | 30.13 | 1020.7 | |||||||
| 06 | 16:55 | W 9 | 10.00 | Overcast | OVC027 | 60.3 | 48 | 62.2 | 56.7 | 64% | 30.13 | 1020.7 | |||||
| 06 | 15:55 | W 14 | 10.00 | Overcast | BKN028 OVC035 | 61.7 | 48 | 61% | 30.12 | 1020.3 | |||||||
| 06 | 14:55 | W 12 | 10.00 | Overcast | BKN027 OVC032 | 60.4 | 47.8 | 63% | 30.14 | 1021.0 | |||||||
| 06 | 13:55 | W 12 | 10.00 | Overcast | OVC026 | 61.5 | 47.5 | 60% | 30.14 | 1021.0 | |||||||
| 06 | 12:55 | SW 15 G 20 | 10.00 | Overcast | OVC020 | 59 | 48 | 67% | 30.13 | 1020.7 | |||||||
| 06 | 11:55 | W 7 | 10.00 | Overcast | OVC015 | 57.7 | 49.1 | 73% | 30.13 | 1020.7 | |||||||
| 06 | 10:55 | SW 7 | 10.00 | Overcast | OVC015 | 56.5 | 49.3 | 56.7 | 52.7 | 77% | 30.12 | 1020.3 | |||||
| 06 | 09:55 | W 12 | 10.00 | Overcast | OVC011 | 55 | 48.9 | 80% | 30.12 | 1020.3 | |||||||
| 06 | 08:55 | SW 7 | 10.00 | Overcast | OVC008 | 54 | 48.9 | 83% | 30.11 | 1020.0 | |||||||
| 06 | 07:55 | W 6 | 10.00 | Overcast | OVC007 | 53.4 | 49.3 | 86% | 30.11 | 1020.0 | |||||||
| 06 | 06:55 | SW 8 | 10.00 | Overcast | OVC007 | 53.2 | 49.5 | 87% | 30.1 | 1019.6 | |||||||
| 06 | 05:55 | W 7 | 10.00 | Overcast | OVC008 | 53.1 | 49.3 | 87% | 30.09 | 1019.3 | |||||||
| 06 | 04:55 | SW 7 | 10.00 | Overcast | SCT011 OVC021 | 53.8 | 49.1 | 55.9 | 53.1 | 84% | 30.08 | 1018.9 | |||||
| 06 | 03:55 | SW 7 | 10.00 | Overcast | OVC007 | 54.5 | 49.8 | 84% | 30.07 | 1018.6 | |||||||
| 06 | 02:55 | SW 5 | 10.00 | Overcast | OVC014 | 54.3 | 49.8 | 85% | 30.05 | 1017.9 | |||||||
| 06 | 01:55 | S 5 | 10.00 | Overcast | OVC011 | 53.4 | 50 | 88% | 30.05 | 1017.9 | |||||||
| 06 | 00:55 | W 5 | 10.00 | Overcast | OVC011 | 54.5 | 49.5 | 83% | 30.04 | 1017.6 | |||||||
| 05 | 23:55 | W 7 | 10.00 | Fair | CLR | 54.3 | 49.3 | 83% | 30.03 | 1017.3 | |||||||
| 05 | 22:55 | W 7 | 10.00 | Fair | CLR | 56.1 | 49.3 | 66.2 | 56.1 | 78% | 30.01 | 1016.6 | |||||
| 05 | 21:55 | W 7 | 10.00 | Fair | CLR | 59 | 50.7 | 74% | 30 | 1016.2 | |||||||
| 05 | 20:55 | W 6 | 10.00 | Fair | CLR | 61.7 | 52.2 | 71% | 29.98 | 1015.6 | |||||||
| 05 | 19:55 | W 7 | 10.00 | Fair | CLR | 63.7 | 52.2 | 66% | 29.97 | 1015.2 | |||||||
| 05 | 18:55 | W 7 | 10.00 | Fair | CLR | 64.6 | 52.2 | 64% | 29.97 | 1015.2 | |||||||
| 05 | 17:55 | W 6 | 10.00 | Fair | CLR | 65.5 | 52.9 | 64% | 29.97 | 1015.2 | |||||||
| 05 | 16:55 | NW 5 | 10.00 | Fair | CLR | 65.7 | 52.3 | 66.4 | 58.1 | 62% | 29.98 | 1015.5 | |||||
| 05 | 14:55 | W 7 | 10.00 | Overcast | OVC025 | 63.5 | 51.1 | 64% | 30 | 1016.2 | |||||||
| 05 | 13:55 | W 5 | 10.00 | Overcast | OVC023 | 62.1 | 50.5 | 66% | 30.01 | 1016.6 | |||||||
| 05 | 12:55 | W 6 | 10.00 | Overcast | OVC021 | 61.3 | 50.4 | 67% | 30.01 | 1016.6 | |||||||
| 05 | 11:55 | W 6 | 10.00 | Overcast | OVC019 | 59.2 | 50.2 | 72% | 30.01 | 1016.6 | |||||||
| 05 | 10:55 | SW 8 | 10.00 | Overcast | OVC018 | 57.9 | 49.6 | 58.3 | 55.6 | 74% | 30.01 | 1016.6 | |||||
| 05 | 09:55 | W 5 | 10.00 | Overcast | OVC016 | 57.2 | 50 | 77% | 30 | 1016.2 | |||||||
| 05 | 08:55 | SW 5 | 10.00 | Overcast | OVC015 | 56.5 | 50 | 79% | 29.99 | 1015.9 | |||||||
| 05 | 07:55 | SW 6 | 10.00 | Overcast | OVC014 | 56.3 | 49.8 | 79% | 29.99 | 1015.9 | |||||||
| 05 | 06:55 | SW 7 | 10.00 | Overcast | OVC014 | 55.9 | 49.5 | 79% | 29.97 | 1015.2 | |||||||
| 05 | 05:55 | SW 6 | 10.00 | Overcast | OVC013 | 55.8 | 50 | 81% | 29.95 | 1014.5 | |||||||
| 05 | 04:55 | SW 7 | 10.00 | Overcast | OVC013 | 55.6 | 50.5 | 55.8 | 51.3 | 83% | 29.94 | 1014.1 | |||||
| 05 | 03:55 | S 3 | 10.00 | Overcast | OVC013 | 54.5 | 50.7 | 87% | 29.93 | 1013.8 | |||||||
| 05 | 02:55 | S 3 | 10.00 | Overcast | OVC012 | 54.7 | 50.2 | 85% | 29.93 | 1013.8 | |||||||
| 05 | 01:55 | S 5 | 10.00 | Overcast | OVC012 | 53.6 | 50.4 | 89% | 29.92 | 1013.4 | |||||||
| 05 | 00:55 | Calm | 10.00 | Partly Cloudy | SCT014 | 51.3 | 48.4 | 90% | 29.91 | 1013.1 | |||||||
| 04 | 23:55 | Calm | 10.00 | Fair | CLR | 54.7 | 50.2 | 85% | 29.9 | 1012.8 | |||||||
| 04 | 22:55 | NW 5 | 10.00 | Fair | CLR | 55.8 | 50.4 | 77.4 | 55.8 | 82% | 29.87 | 1011.8 | |||||
| 04 | 21:55 | W 8 | 10.00 | Fair | CLR | 57.6 | 50.7 | 78% | 29.87 | 1011.8 | |||||||
| 04 | 20:55 | NW 6 | 10.00 | Fair | CLR | 60.1 | 50.7 | 71% | 29.85 | 1011.1 | |||||||
| 04 | 19:55 | W 12 | 10.00 | Fair | CLR | 65.3 | 51.1 | 60% | 29.83 | 1010.4 | |||||||
| 04 | 18:55 | NW 8 | 10.00 | Fair | CLR | 70.7 | 52.7 | 53% | 29.81 | 1009.8 | |||||||
| 04 | 17:55 | W 9 | 10.00 | Fair | CLR | 75 | 52.2 | 45% | 78 | 29.81 | 1009.8 | ||||||
| 04 | 16:55 | NW 9 | 10.00 | Fair | CLR | 77.2 | 54.1 | 78.1 | 69.6 | 45% | 79 | 29.81 | 1009.7 | ||||
| 04 | 15:55 | NW 9 | 10.00 | Fair | CLR | 77 | 54.7 | 46% | 78 | 29.82 | 1010.1 | ||||||
| 04 | 14:55 | NW 10 | 10.00 | Fair | CLR | 77.4 | 55.6 | 47% | 79 | 29.83 | 1010.4 | ||||||
| 04 | 13:55 | W 8 | 10.00 | Fair | CLR | 77 | 52.7 | 43% | 78 | 29.84 | 1010.7 | ||||||
| 04 | 12:55 | NW 7 | 10.00 | A Few Clouds | FEW210 | 75.7 | 52.9 | 45% | 78 | 29.84 | 1010.7 | ||||||
| 04 | 11:55 | NW 7 | 10.00 | Fair | CLR | 72.7 | 52.9 | 50% | 29.86 | 1011.4 | |||||||
| 04 | 10:55 | NW 5 | 10.00 | Fair | CLR | 69.4 | 53.1 | 69.4 | 45.5 | 56% | 29.86 | 1011.4 | |||||
| 04 | 09:55 | Calm | 10.00 | Fair | CLR | 67.3 | 51.4 | 57% | 29.86 | 1011.4 | |||||||
| 04 | 08:55 | W 6 | 10.00 | Fair | CLR | 63.7 | 50.4 | 62% | 29.85 | 1011.0 | |||||||
| 04 | 07:55 | SW 5 | 10.00 | Fair | CLR | 59.5 | 50.2 | 71% | 29.84 | 1010.7 | |||||||
| Date | Time (pdt) | Wind (mph) | Vis. (mi.) | Weather | Sky Cond. | Air | Dwpt | Max. | Min. | Relative Humidity | Wind Chill (°F) | Heat Index (°F) | altimeter (in) | sea level (mb) | 1 hr | 3 hr | 6 hr |
| 6 hour | |||||||||||||||||
| Temperature (ºF) | Pressure | Precipitation (in) | |||||||||||||||